Weather History for Stephenville, TX

Change the Weather History Date:

Friday, March 1, 2013

  Actual Average Record
Temperature  
Mean Temperature 45 °F -  
Max Temperature 60 °F 65 °F 91 °F (2006)
Min Temperature 30 °F 40 °F 12 °F (1922)
Degree Days  
Heating Degree Days 20    
Moisture  
Dew Point 25 °F    
Average Humidity 53    
Maximum Humidity 81    
Minimum Humidity 20    
Precipitation  
Precipitation 0.00 in - - ()
Sea Level Pressure  
Sea Level Pressure 30.26 in    
Wind  
Wind Speed 4 mph (NNW)    
Max Wind Speed 29 mph    
Max Gust Speed 37 mph    
Visibility 10 miles    
Events      
Averages and records for this station are not official NWS values.
T = Trace of Precipitation, MM = Missing Value Source: NWS Daily Summary

Daily Weather History Graph

Daily Weather History Graph

Search for Another Location

Airport:

Trip Planner

Search our weather history database for the weather conditions in past years. The results will help you decide how hot, cold, wet, or windy it might be!

Date:

Astronomy

Mar. 01, 2013 Rise Set
Actual Time 6:59 AM CST 6:30 PM CST
Civil Twilight 6:35 AM CST 6:55 PM CST
Nautical Twilight 6:06 AM CST 7:23 PM CST
Astronomical Twilight 5:38 AM CST 7:51 PM CST
Moon 10:46 PM CST (3/1) 9:04 AM CST (3/1)
Length of Visible Light 12h 19m
Length of Day
11h 30m
Waning Gibbous, 83% of the Moon is Illuminated
Mar 1
Waning Gibbous
Mar 4
Last Quarter
Mar 11
New
Mar 19
First Quarter
Mar 27
Full

Hourly Weather History & Observations

Time (CST) Temp. Windchill Dew Point Humidity Pressure Visibility Wind Dir Wind Speed Gust Speed Precip Events Conditions
12:15 AM 33.8 °F - 26.6 °F 75% 30.26 in 10.0 mi Calm Calm - N/A   Clear
12:35 AM 35.6 °F - 24.8 °F 65% 30.26 in 10.0 mi Calm Calm - N/A   Clear
12:55 AM 35.6 °F - 24.8 °F 65% 30.26 in 10.0 mi Calm Calm - N/A   Clear
1:15 AM 35.6 °F - 24.8 °F 65% 30.26 in 10.0 mi Calm Calm - N/A   Clear
1:35 AM 33.8 °F - 24.8 °F 70% 30.26 in 10.0 mi Calm Calm - N/A   Clear
1:55 AM 33.8 °F 29.6 °F 24.8 °F 70% 30.26 in 10.0 mi NW 4.6 mph - N/A   Clear
2:15 AM 33.8 °F - 24.8 °F 70% 30.26 in 10.0 mi Calm Calm - N/A   Clear
2:35 AM 33.8 °F - 24.8 °F 70% 30.25 in 10.0 mi Calm Calm - N/A   Clear
2:55 AM 32.0 °F 26.4 °F 24.8 °F 75% 30.25 in 10.0 mi WNW 5.8 mph - N/A   Clear
3:15 AM 32.0 °F 27.5 °F 24.8 °F 75% 30.24 in 10.0 mi NW 4.6 mph - N/A   Clear
3:35 AM 32.0 °F - 23.0 °F 69% 30.24 in 10.0 mi Calm Calm - N/A   Clear
3:55 AM 32.0 °F - 23.0 °F 69% 30.24 in 10.0 mi Calm Calm - N/A   Clear
4:15 AM 32.0 °F - 23.0 °F 69% 30.24 in 10.0 mi Calm Calm - N/A   Clear
4:35 AM 32.0 °F - 24.8 °F 75% 30.24 in 10.0 mi Calm Calm - N/A   Clear
4:55 AM 30.2 °F - 23.0 °F 75% 30.24 in 10.0 mi Calm Calm - N/A   Clear
5:15 AM 30.2 °F - 23.0 °F 75% 30.24 in 10.0 mi Calm Calm - N/A   Clear
5:35 AM 30.2 °F - 24.8 °F 80% 30.24 in 10.0 mi Calm Calm - N/A   Clear
5:55 AM 30.2 °F - 23.0 °F 75% 30.24 in 10.0 mi Calm Calm - N/A   Clear
6:15 AM 30.2 °F - 23.0 °F 75% 30.25 in 10.0 mi Calm Calm - N/A   Clear
6:35 AM 30.2 °F 26.7 °F 23.0 °F 75% 30.26 in 10.0 mi North 3.5 mph - N/A   Clear
6:55 AM 32.0 °F - 24.8 °F 75% 30.26 in 10.0 mi Calm Calm - N/A   Clear
7:15 AM 32.0 °F - 26.6 °F 80% 30.26 in 10.0 mi Calm Calm - N/A   Scattered Clouds
7:35 AM 32.0 °F - 26.6 °F 80% 30.27 in 10.0 mi Calm Calm - N/A   Clear
7:55 AM 33.8 °F - 28.4 °F 81% 30.27 in 10.0 mi Calm Calm - N/A   Clear
8:15 AM 35.6 °F - 28.4 °F 75% 30.28 in 10.0 mi Calm Calm - N/A   Scattered Clouds
8:35 AM 39.2 °F - 28.4 °F 65% 30.29 in 10.0 mi Calm Calm - N/A   Clear
8:55 AM 41.0 °F - 28.4 °F 61% 30.30 in 10.0 mi Calm Calm - N/A   Scattered Clouds
9:15 AM 42.8 °F 38.6 °F 28.4 °F 57% 30.32 in 10.0 mi ENE 6.9 mph - N/A   Scattered Clouds
9:35 AM 44.6 °F 41.4 °F 23.0 °F 43% 30.32 in 10.0 mi ENE 5.8 mph - N/A   Scattered Clouds
9:55 AM 44.6 °F - 23.0 °F 43% 30.31 in 10.0 mi Calm Calm - N/A   Scattered Clouds
10:15 AM 46.4 °F - 23.0 °F 40% 30.31 in 10.0 mi Calm Calm - N/A   Scattered Clouds
10:35 AM 46.4 °F - 23.0 °F 40% 30.30 in 10.0 mi Calm Calm - N/A   Clear
10:55 AM 48.2 °F - 23.0 °F 37% 30.30 in 10.0 mi Calm Calm - N/A   Clear
11:15 AM 48.2 °F - 23.0 °F 37% 30.29 in 10.0 mi Calm Calm - N/A   Clear
11:35 AM 50.0 °F - 23.0 °F 35% 30.29 in 10.0 mi Calm Calm - N/A   Clear
11:55 AM 51.8 °F - 23.0 °F 33% 30.28 in 10.0 mi West 3.5 mph - N/A   Clear
12:15 PM 53.6 °F - 23.0 °F 30% 30.27 in 10.0 mi West 6.9 mph - N/A   Scattered Clouds
12:35 PM 55.4 °F - 23.0 °F 29% 30.26 in 10.0 mi SW 8.1 mph - N/A   Scattered Clouds
12:55 PM 57.2 °F - 21.2 °F 25% 30.25 in 10.0 mi West 3.5 mph - N/A   Clear
1:15 PM 59.0 °F - 21.2 °F 23% 30.22 in 10.0 mi WSW 10.4 mph - N/A   Clear
1:35 PM 60.8 °F - 21.2 °F 22% 30.21 in 10.0 mi West 10.4 mph 19.6 mph N/A   Scattered Clouds
1:55 PM 60.8 °F - 21.2 °F 22% 30.20 in 10.0 mi West 11.5 mph 18.4 mph N/A   Scattered Clouds
2:15 PM 59.0 °F - 17.6 °F 20% 30.20 in 10.0 mi WNW 18.4 mph 29.9 mph N/A   Mostly Cloudy
2:35 PM 55.4 °F - 21.2 °F 26% 30.21 in 10.0 mi NW 15.0 mph 36.8 mph N/A   Overcast
2:55 PM 55.4 °F - 26.6 °F 33% 30.20 in 10.0 mi NW 3.5 mph - N/A   Mostly Cloudy
3:15 PM 57.2 °F - 23.0 °F 27% 30.20 in 10.0 mi WNW 15.0 mph 24.2 mph N/A   Scattered Clouds
3:35 PM 57.2 °F - 19.4 °F 23% 30.19 in 10.0 mi NNW 24.2 mph 33.4 mph N/A   Scattered Clouds
3:55 PM 55.4 °F - 19.4 °F 25% 30.20 in 10.0 mi NNW 20.7 mph 29.9 mph N/A   Scattered Clouds
4:15 PM 55.4 °F - 19.4 °F 25% 30.20 in 10.0 mi NNW 16.1 mph 25.3 mph N/A   Mostly Cloudy
4:35 PM 53.6 °F - 24.8 °F 33% 30.20 in 10.0 mi NNW 15.0 mph 23.0 mph N/A   Scattered Clouds
4:55 PM 55.4 °F - 23.0 °F 29% 30.20 in 10.0 mi NW 16.1 mph 25.3 mph N/A   Scattered Clouds
5:15 PM 55.4 °F - 23.0 °F 29% 30.22 in 10.0 mi NNW 28.8 mph 33.4 mph N/A   Scattered Clouds
5:35 PM 51.8 °F - 28.4 °F 41% 30.22 in 10.0 mi North 12.7 mph 20.7 mph N/A   Scattered Clouds
5:55 PM 51.8 °F - 28.4 °F 41% 30.22 in 10.0 mi NNW 6.9 mph - N/A   Scattered Clouds
6:15 PM 51.8 °F - 26.6 °F 38% 30.23 in 10.0 mi NNW 10.4 mph - N/A   Scattered Clouds
6:35 PM 51.8 °F - 26.6 °F 38% 30.24 in 10.0 mi North 13.8 mph 19.6 mph N/A   Scattered Clouds
6:55 PM 50.0 °F - 26.6 °F 40% 30.25 in 10.0 mi North 9.2 mph 21.9 mph N/A   Scattered Clouds
7:15 PM 50.0 °F - 26.6 °F 40% 30.26 in 10.0 mi North 9.2 mph 16.1 mph N/A   Scattered Clouds
7:35 PM 48.2 °F - 28.4 °F 46% 30.27 in 10.0 mi North 10.4 mph 19.6 mph N/A   Clear
7:55 PM 46.4 °F 43.5 °F 28.4 °F 50% 30.28 in 10.0 mi North 5.8 mph - N/A   Clear
8:15 PM 44.6 °F 40.7 °F 28.4 °F 53% 30.29 in 10.0 mi North 6.9 mph - N/A   Clear
8:35 PM 44.6 °F 40.7 °F 28.4 °F 53% 30.30 in 10.0 mi North 6.9 mph - N/A   Clear
8:55 PM 44.6 °F 40.2 °F 28.4 °F 53% 30.30 in 10.0 mi North 8.1 mph - N/A   Clear
9:15 PM 42.8 °F 38.6 °F 28.4 °F 57% 30.30 in 10.0 mi North 6.9 mph - N/A   Clear
9:35 PM 42.8 °F 39.3 °F 30.2 °F 61% 30.30 in 10.0 mi North 5.8 mph - N/A   Clear
9:55 PM 42.8 °F 38.6 °F 30.2 °F 61% 30.31 in 10.0 mi North 6.9 mph - N/A   Clear
10:15 PM 42.8 °F 38.6 °F 30.2 °F 61% 30.32 in 10.0 mi North 6.9 mph - N/A   Scattered Clouds
10:35 PM 42.8 °F 40.1 °F 30.2 °F 61% 30.32 in 10.0 mi NNW 4.6 mph - N/A   Scattered Clouds
10:55 PM 42.8 °F 39.3 °F 30.2 °F 61% 30.33 in 10.0 mi North 5.8 mph - N/A   Mostly Cloudy
11:15 PM 42.8 °F 38.0 °F 30.2 °F 61% 30.33 in 10.0 mi North 8.1 mph - N/A   Mostly Cloudy
11:35 PM 41.0 °F 35.8 °F 30.2 °F 65% 30.33 in 10.0 mi North 8.1 mph - N/A   Scattered Clouds
11:55 PM 39.2 °F 34.2 °F 28.4 °F 65% 30.33 in 10.0 mi North 6.9 mph - N/A   Clear